sensor_id;sensor_type;location;lat;lon;timestamp;pressure;altitude;pressure_sealevel;temperature;humidity
34185;BME280;20454;48.100;11.776;2023-03-24T00:02:16;94814.47;;;11.10;90.04
34185;BME280;20454;48.100;11.776;2023-03-24T00:04:42;94822.00;;;11.10;89.94
34185;BME280;20454;48.100;11.776;2023-03-24T00:07:09;94811.56;;;11.07;89.50
34185;BME280;20454;48.100;11.776;2023-03-24T00:09:40;94814.47;;;11.10;89.07
34185;BME280;20454;48.100;11.776;2023-03-24T00:12:08;94800.44;;;11.07;89.30
34185;BME280;20454;48.100;11.776;2023-03-24T00:14:35;94801.72;;;11.09;88.81
34185;BME280;20454;48.100;11.776;2023-03-24T00:17:04;94803.34;;;11.10;88.16
34185;BME280;20454;48.100;11.776;2023-03-24T00:19:31;94789.38;;;10.98;88.89
34185;BME280;20454;48.100;11.776;2023-03-24T00:21:59;94806.81;;;11.07;88.96
34185;BME280;20454;48.100;11.776;2023-03-24T00:24:25;94795.19;;;11.05;89.15
34185;BME280;20454;48.100;11.776;2023-03-24T00:26:50;94786.38;;;11.03;89.07
34185;BME280;20454;48.100;11.776;2023-03-24T00:29:16;94776.38;;;11.02;89.64
34185;BME280;20454;48.100;11.776;2023-03-24T00:31:42;94761.88;;;10.97;89.85
34185;BME280;20454;48.100;11.776;2023-03-24T00:34:08;94751.56;;;10.97;89.79
34185;BME280;20454;48.100;11.776;2023-03-24T00:36:35;94755.41;;;10.93;89.12
34185;BME280;20454;48.100;11.776;2023-03-24T00:39:01;94741.69;;;10.88;88.79
34185;BME280;20454;48.100;11.776;2023-03-24T00:41:28;94742.84;;;10.87;88.50
34185;BME280;20454;48.100;11.776;2023-03-24T00:43:57;94737.63;;;10.85;87.10
34185;BME280;20454;48.100;11.776;2023-03-24T00:46:24;94744.81;;;10.86;85.67
34185;BME280;20454;48.100;11.776;2023-03-24T00:49:03;94732.06;;;10.85;85.41
34185;BME280;20454;48.100;11.776;2023-03-24T00:51:35;94728.09;;;10.86;85.32
34185;BME280;20454;48.100;11.776;2023-03-24T00:54:02;94721.25;;;10.84;85.87
34185;BME280;20454;48.100;11.776;2023-03-24T00:56:30;94711.28;;;10.83;85.02
34185;BME280;20454;48.100;11.776;2023-03-24T00:58:56;94707.34;;;10.84;84.49
34185;BME280;20454;48.100;11.776;2023-03-24T01:01:27;94710.25;;;10.87;84.21
34185;BME280;20454;48.100;11.776;2023-03-24T01:03:54;94709.09;;;10.88;84.44
34185;BME280;20454;48.100;11.776;2023-03-24T01:06:22;94701.09;;;10.87;84.29
34185;BME280;20454;48.100;11.776;2023-03-24T01:08:49;94697.50;;;10.86;84.67
34185;BME280;20454;48.100;11.776;2023-03-24T01:11:23;94700.75;;;10.88;84.33
34185;BME280;20454;48.100;11.776;2023-03-24T01:13:51;94695.06;;;10.85;84.39
34185;BME280;20454;48.100;11.776;2023-03-24T01:16:17;94708.75;;;10.90;84.26
34185;BME280;20454;48.100;11.776;2023-03-24T01:18:44;94706.66;;;10.87;83.70
34185;BME280;20454;48.100;11.776;2023-03-24T01:21:10;94706.31;;;10.88;83.97
34185;BME280;20454;48.100;11.776;2023-03-24T01:23:37;94698.66;;;10.85;83.94
34185;BME280;20454;48.100;11.776;2023-03-24T01:26:06;94696.72;;;10.86;84.17
34185;BME280;20454;48.100;11.776;2023-03-24T01:28:33;94709.59;;;10.90;83.38
34185;BME280;20454;48.100;11.776;2023-03-24T01:31:04;94722.00;;;10.93;82.88
34185;BME280;20454;48.100;11.776;2023-03-24T01:33:30;94722.91;;;10.97;83.01
34185;BME280;20454;48.100;11.776;2023-03-24T01:35:56;94728.03;;;10.95;83.34
34185;BME280;20454;48.100;11.776;2023-03-24T01:38:21;94733.25;;;10.96;83.42
34185;BME280;20454;48.100;11.776;2023-03-24T01:40:47;94729.31;;;10.97;83.30
34185;BME280;20454;48.100;11.776;2023-03-24T01:43:19;94738.94;;;11.00;84.15
34185;BME280;20454;48.100;11.776;2023-03-24T01:46:15;94722.47;;;10.95;83.95
34185;BME280;20454;48.100;11.776;2023-03-24T01:51:31;94721.44;;;10.99;83.79
34185;BME280;20454;48.100;11.776;2023-03-24T01:54:03;94704.81;;;10.91;84.45
34185;BME280;20454;48.100;11.776;2023-03-24T01:56:34;94697.16;;;10.88;84.86
34185;BME280;20454;48.100;11.776;2023-03-24T01:59:04;94704.81;;;10.91;85.47
34185;BME280;20454;48.100;11.776;2023-03-24T02:01:31;94695.06;;;10.85;85.46
34185;BME280;20454;48.100;11.776;2023-03-24T02:03:57;94694.94;;;10.81;85.97
34185;BME280;20454;48.100;11.776;2023-03-24T02:06:23;94703.16;;;10.78;86.43
34185;BME280;20454;48.100;11.776;2023-03-24T02:08:53;94702.69;;;10.76;86.49
34185;BME280;20454;48.100;11.776;2023-03-24T02:11:21;94696.88;;;10.69;87.01
34185;BME280;20454;48.100;11.776;2023-03-24T02:13:47;94692.13;;;10.69;87.72
34185;BME280;20454;48.100;11.776;2023-03-24T02:24:53;94686.91;;;10.68;89.04
34185;BME280;20454;48.100;11.776;2023-03-24T02:39:15;94704.66;;;10.75;89.08
34185;BME280;20454;48.100;11.776;2023-03-24T02:44:42;94712.31;;;10.78;87.51
34185;BME280;20454;48.100;11.776;2023-03-24T02:52:44;94716.84;;;10.83;86.93
34185;BME280;20454;48.100;11.776;2023-03-24T02:55:15;94720.47;;;10.83;87.24
34185;BME280;20454;48.100;11.776;2023-03-24T02:58:03;94718.13;;;10.85;86.84
34185;BME280;20454;48.100;11.776;2023-03-24T05:01:00;94591.41;;;10.76;89.80
34185;BME280;20454;48.100;11.776;2023-03-24T05:03:27;94601.75;;;10.75;90.50
34185;BME280;20454;48.100;11.776;2023-03-24T05:05:53;94606.47;;;10.75;90.12
34185;BME280;20454;48.100;11.776;2023-03-24T05:08:19;94591.63;;;10.71;89.93
34185;BME280;20454;48.100;11.776;2023-03-24T05:10:45;94595.09;;;10.68;90.13
34185;BME280;20454;48.100;11.776;2023-03-24T05:13:11;94603.69;;;10.75;89.19
34185;BME280;20454;48.100;11.776;2023-03-24T05:15:37;94614.50;;;10.76;87.99
34185;BME280;20454;48.100;11.776;2023-03-24T05:18:03;94612.63;;;10.80;87.36
34185;BME280;20454;48.100;11.776;2023-03-24T05:20:29;94597.22;;;10.83;86.93
34185;BME280;20454;48.100;11.776;2023-03-24T05:22:55;94598.16;;;10.87;87.31
34185;BME280;20454;48.100;11.776;2023-03-24T05:25:20;94608.81;;;10.97;86.43
34185;BME280;20454;48.100;11.776;2023-03-24T05:27:46;94617.88;;;10.94;85.89
34185;BME280;20454;48.100;11.776;2023-03-24T05:30:13;94628.31;;;10.97;86.04
34185;BME280;20454;48.100;11.776;2023-03-24T05:32:39;94631.09;;;10.97;86.94
34185;BME280;20454;48.100;11.776;2023-03-24T05:35:05;94637.59;;;11.01;88.58
34185;BME280;20454;48.100;11.776;2023-03-24T05:37:30;94631.53;;;10.99;88.30
34185;BME280;20454;48.100;11.776;2023-03-24T05:39:56;94635.97;;;11.00;88.85
34185;BME280;20454;48.100;11.776;2023-03-24T05:42:22;94647.91;;;11.00;89.97
34185;BME280;20454;48.100;11.776;2023-03-24T05:44:48;94660.66;;;11.01;92.33
34185;BME280;20454;48.100;11.776;2023-03-24T07:02:22;94588.81;;;11.91;89.25
34185;BME280;20454;48.100;11.776;2023-03-24T07:04:48;94594.50;;;11.94;89.59
34185;BME280;20454;48.100;11.776;2023-03-24T07:07:15;94577.06;;;11.97;88.60
34185;BME280;20454;48.100;11.776;2023-03-24T07:09:41;94582.38;;;12.02;88.29
34185;BME280;20454;48.100;11.776;2023-03-24T07:12:07;94604.75;;;12.18;89.43
34185;BME280;20454;48.100;11.776;2023-03-24T07:14:33;94584.75;;;12.16;88.73
34185;BME280;20454;48.100;11.776;2023-03-24T07:16:59;94617.03;;;12.29;88.65
34185;BME280;20454;48.100;11.776;2023-03-24T07:19:26;94620.44;;;12.22;87.57
34185;BME280;20454;48.100;11.776;2023-03-24T07:21:52;94574.69;;;12.11;88.40
34185;BME280;20454;48.100;11.776;2023-03-24T07:24:17;94570.13;;;12.19;89.83
34185;BME280;20454;48.100;11.776;2023-03-24T07:26:44;94587.41;;;12.24;89.70
34185;BME280;20454;48.100;11.776;2023-03-24T07:29:10;94590.72;;;12.14;89.90
34185;BME280;20454;48.100;11.776;2023-03-24T07:31:36;94621.28;;;12.11;90.91
34185;BME280;20454;48.100;11.776;2023-03-24T07:34:04;94609.09;;;12.03;90.77
34185;BME280;20454;48.100;11.776;2023-03-24T07:36:30;94628.28;;;12.05;90.77
34185;BME280;20454;48.100;11.776;2023-03-24T07:38:56;94642.53;;;12.15;91.07
34185;BME280;20454;48.100;11.776;2023-03-24T07:41:22;94638.91;;;12.15;91.02
34185;BME280;20454;48.100;11.776;2023-03-24T07:43:49;94643.09;;;12.09;92.14
34185;BME280;20454;48.100;11.776;2023-03-24T07:46:15;94649.75;;;12.04;91.96
34185;BME280;20454;48.100;11.776;2023-03-24T07:48:41;94660.22;;;12.07;92.05
34185;BME280;20454;48.100;11.776;2023-03-24T07:51:07;94681.47;;;12.00;94.12
34185;BME280;20454;48.100;11.776;2023-03-24T07:53:32;94695.06;;;12.01;94.00
34185;BME280;20454;48.100;11.776;2023-03-24T07:55:58;94691.22;;;11.94;94.26
34185;BME280;20454;48.100;11.776;2023-03-24T07:58:25;94710.28;;;12.04;95.51
34185;BME280;20454;48.100;11.776;2023-03-24T08:03:26;94694.50;;;11.96;97.72
34185;BME280;20454;48.100;11.776;2023-03-24T08:05:53;94683.81;;;11.98;95.09
34185;BME280;20454;48.100;11.776;2023-03-24T08:08:20;94686.69;;;12.01;95.23
34185;BME280;20454;48.100;11.776;2023-03-24T08:10:46;94708.06;;;12.09;96.76
34185;BME280;20454;48.100;11.776;2023-03-24T08:13:14;94710.25;;;12.16;98.00
34185;BME280;20454;48.100;11.776;2023-03-24T08:15:46;94688.19;;;12.11;98.02
34185;BME280;20454;48.100;11.776;2023-03-24T08:18:12;94701.88;;;12.16;97.63
34185;BME280;20454;48.100;11.776;2023-03-24T08:20:38;94709.91;;;12.17;99.25
34185;BME280;20454;48.100;11.776;2023-03-24T08:23:04;94697.97;;;12.05;99.44
34185;BME280;20454;48.100;11.776;2023-03-24T08:25:30;94712.34;;;12.19;94.97
34185;BME280;20454;48.100;11.776;2023-03-24T08:27:56;94720.22;;;12.29;94.49
34185;BME280;20454;48.100;11.776;2023-03-24T08:30:23;94716.13;;;12.38;96.27
34185;BME280;20454;48.100;11.776;2023-03-24T08:32:51;94706.66;;;12.55;97.07
34185;BME280;20454;48.100;11.776;2023-03-24T08:35:29;94702.47;;;12.61;96.09
34185;BME280;20454;48.100;11.776;2023-03-24T08:37:58;94690.44;;;12.72;96.16
34185;BME280;20454;48.100;11.776;2023-03-24T08:40:26;94702.91;;;12.90;95.46
34185;BME280;20454;48.100;11.776;2023-03-24T08:42:54;94721.00;;;13.08;94.02
34185;BME280;20454;48.100;11.776;2023-03-24T08:45:22;94720.84;;;13.17;90.33
34185;BME280;20454;48.100;11.776;2023-03-24T08:47:49;94727.78;;;13.23;88.33
34185;BME280;20454;48.100;11.776;2023-03-24T08:50:17;94728.25;;;13.25;88.99
34185;BME280;20454;48.100;11.776;2023-03-24T08:52:44;94744.50;;;13.35;88.35
34185;BME280;20454;48.100;11.776;2023-03-24T08:55:13;94731.66;;;13.34;88.50
34185;BME280;20454;48.100;11.776;2023-03-24T08:57:39;94734.13;;;13.35;87.98
34185;BME280;20454;48.100;11.776;2023-03-24T09:00:05;94722.84;;;13.32;88.20
34185;BME280;20454;48.100;11.776;2023-03-24T09:02:38;94725.38;;;13.37;87.12
34185;BME280;20454;48.100;11.776;2023-03-24T09:05:03;94740.81;;;13.46;87.22
34185;BME280;20454;48.100;11.776;2023-03-24T09:07:29;94731.75;;;13.37;88.42
34185;BME280;20454;48.100;11.776;2023-03-24T09:09:55;94749.28;;;13.50;87.61
34185;BME280;20454;48.100;11.776;2023-03-24T09:12:20;94719.59;;;13.30;88.45
34185;BME280;20454;48.100;11.776;2023-03-24T09:14:47;94732.59;;;13.38;88.11
34185;BME280;20454;48.100;11.776;2023-03-24T09:17:14;94732.53;;;13.50;88.25
34185;BME280;20454;48.100;11.776;2023-03-24T09:19:40;94712.41;;;13.44;87.30
34185;BME280;20454;48.100;11.776;2023-03-24T09:22:06;94737.75;;;13.67;85.90
34185;BME280;20454;48.100;11.776;2023-03-24T09:24:31;94718.66;;;13.69;83.95
34185;BME280;20454;48.100;11.776;2023-03-24T09:26:57;94723.41;;;13.84;81.60
34185;BME280;20454;48.100;11.776;2023-03-24T09:29:24;94739.63;;;14.09;79.72
34185;BME280;20454;48.100;11.776;2023-03-24T09:31:50;94701.47;;;14.01;80.28
34185;BME280;20454;48.100;11.776;2023-03-24T09:34:18;94742.16;;;14.30;78.27
34185;BME280;20454;48.100;11.776;2023-03-24T09:36:46;94744.16;;;14.29;78.71
34185;BME280;20454;48.100;11.776;2023-03-24T09:39:11;94728.38;;;14.21;77.74
34185;BME280;20454;48.100;11.776;2023-03-24T09:41:37;94730.44;;;14.24;77.00
34185;BME280;20454;48.100;11.776;2023-03-24T09:44:08;94732.66;;;14.34;77.55
34185;BME280;20454;48.100;11.776;2023-03-24T09:46:44;94736.28;;;14.35;76.26
34185;BME280;20454;48.100;11.776;2023-03-24T09:49:14;94747.75;;;14.30;77.23
34185;BME280;20454;48.100;11.776;2023-03-24T09:51:43;94764.53;;;14.30;78.20
34185;BME280;20454;48.100;11.776;2023-03-24T09:54:27;94761.13;;;14.21;80.33
34185;BME280;20454;48.100;11.776;2023-03-24T09:56:55;94763.28;;;14.12;81.14
34185;BME280;20454;48.100;11.776;2023-03-24T10:01:53;94776.53;;;13.99;83.58
34185;BME280;20454;48.100;11.776;2023-03-24T10:04:21;94766.53;;;13.83;85.96
34185;BME280;20454;48.100;11.776;2023-03-24T10:06:51;94783.13;;;13.91;87.22
34185;BME280;20454;48.100;11.776;2023-03-24T10:09:30;94801.69;;;13.99;88.35
34185;BME280;20454;48.100;11.776;2023-03-24T10:15:01;94807.41;;;13.87;91.33
34185;BME280;20454;48.100;11.776;2023-03-24T10:20:13;94786.69;;;13.61;92.68
34185;BME280;20454;48.100;11.776;2023-03-24T10:25:23;94821.53;;;13.79;94.22
34185;BME280;20454;48.100;11.776;2023-03-24T10:28:00;94808.91;;;13.69;94.99
34185;BME280;20454;48.100;11.776;2023-03-24T10:30:34;94812.03;;;13.68;95.50
34185;BME280;20454;48.100;11.776;2023-03-24T10:33:03;94805.66;;;13.67;95.19
34185;BME280;20454;48.100;11.776;2023-03-24T10:35:35;94820.63;;;13.75;94.84
34185;BME280;20454;48.100;11.776;2023-03-24T10:38:12;94807.44;;;13.60;95.25
34185;BME280;20454;48.100;11.776;2023-03-24T10:40:39;94830.66;;;13.76;96.28
34185;BME280;20454;48.100;11.776;2023-03-24T10:43:06;94812.03;;;13.68;96.59
34185;BME280;20454;48.100;11.776;2023-03-24T10:45:32;94835.25;;;13.84;96.86
34185;BME280;20454;48.100;11.776;2023-03-24T10:48:00;94811.88;;;13.76;96.66
34185;BME280;20454;48.100;11.776;2023-03-24T10:50:28;94823.78;;;13.73;95.71
34185;BME280;20454;48.100;11.776;2023-03-24T10:52:54;94830.00;;;13.67;96.04
34185;BME280;20454;48.100;11.776;2023-03-24T10:55:28;94827.66;;;13.69;96.63
34185;BME280;20454;48.100;11.776;2023-03-24T10:57:57;94821.34;;;13.72;96.66
34185;BME280;20454;48.100;11.776;2023-03-24T11:00:28;94840.31;;;13.94;96.50
34185;BME280;20454;48.100;11.776;2023-03-24T11:03:10;94823.63;;;13.97;91.05
34185;BME280;20454;48.100;11.776;2023-03-24T11:05:38;94838.44;;;13.98;92.55
34185;BME280;20454;48.100;11.776;2023-03-24T11:08:22;94818.66;;;13.75;89.20
34185;BME280;20454;48.100;11.776;2023-03-24T11:10:51;94813.38;;;13.58;91.05
34185;BME280;20454;48.100;11.776;2023-03-24T11:13:30;94827.06;;;13.48;92.99
34185;BME280;20454;48.100;11.776;2023-03-24T11:16:13;94828.81;;;13.52;92.69
34185;BME280;20454;48.100;11.776;2023-03-24T11:19:04;94837.28;;;13.56;93.32
34185;BME280;20454;48.100;11.776;2023-03-24T11:21:34;94805.47;;;13.33;92.43
34185;BME280;20454;48.100;11.776;2023-03-24T11:24:03;94849.06;;;13.49;92.69
34185;BME280;20454;48.100;11.776;2023-03-24T11:26:35;94840.56;;;13.46;91.82
34185;BME280;20454;48.100;11.776;2023-03-24T11:29:13;94832.84;;;13.55;92.60
34185;BME280;20454;48.100;11.776;2023-03-24T11:31:40;94831.06;;;13.62;90.88
34185;BME280;20454;48.100;11.776;2023-03-24T11:34:15;94842.78;;;13.68;88.88
34185;BME280;20454;48.100;11.776;2023-03-24T11:36:58;94824.94;;;13.57;89.35
34185;BME280;20454;48.100;11.776;2023-03-24T11:39:29;94823.41;;;13.59;89.41
34185;BME280;20454;48.100;11.776;2023-03-24T11:44:49;94826.06;;;13.40;91.11
34185;BME280;20454;48.100;11.776;2023-03-24T11:47:26;94817.44;;;13.45;90.65
34185;BME280;20454;48.100;11.776;2023-03-24T11:52:38;94804.25;;;13.46;94.92
34185;BME280;20454;48.100;11.776;2023-03-24T11:58:04;94752.34;;;13.91;93.47
34185;BME280;20454;48.100;11.776;2023-03-24T12:00:36;94748.91;;;14.29;96.50
34185;BME280;20454;48.100;11.776;2023-03-24T12:05:44;94728.38;;;14.75;91.61
34185;BME280;20454;48.100;11.776;2023-03-24T12:08:37;94743.28;;;15.16;87.95
34185;BME280;20454;48.100;11.776;2023-03-24T12:13:54;94718.41;;;15.53;82.59
34185;BME280;20454;48.100;11.776;2023-03-24T12:16:47;94719.84;;;15.66;85.42
34185;BME280;20454;48.100;11.776;2023-03-24T12:22:05;94736.53;;;16.04;81.16
34185;BME280;20454;48.100;11.776;2023-03-24T12:27:03;94730.56;;;16.54;78.76
34185;BME280;20454;48.100;11.776;2023-03-24T12:32:28;94735.50;;;16.90;74.64
34185;BME280;20454;48.100;11.776;2023-03-24T12:35:08;94696.44;;;16.52;74.60
34185;BME280;20454;48.100;11.776;2023-03-24T12:38:10;94711.16;;;16.42;76.16
34185;BME280;20454;48.100;11.776;2023-03-24T12:46:27;94714.28;;;16.14;78.45
34185;BME280;20454;48.100;11.776;2023-03-24T12:49:08;94715.34;;;15.84;77.77
34185;BME280;20454;48.100;11.776;2023-03-24T12:52:05;94698.59;;;15.65;76.26
34185;BME280;20454;48.100;11.776;2023-03-24T12:57:07;94727.81;;;15.41;77.63
34185;BME280;20454;48.100;11.776;2023-03-24T12:59:42;94724.31;;;15.29;78.28
34185;BME280;20454;48.100;11.776;2023-03-24T13:02:18;94734.56;;;15.40;79.88
34185;BME280;20454;48.100;11.776;2023-03-24T13:04:46;94706.59;;;15.44;79.09
34185;BME280;20454;48.100;11.776;2023-03-24T13:07:16;94704.63;;;15.44;79.63
34185;BME280;20454;48.100;11.776;2023-03-24T13:09:59;94717.00;;;15.62;78.64
34185;BME280;20454;48.100;11.776;2023-03-24T13:12:50;94709.00;;;15.64;77.55
34185;BME280;20454;48.100;11.776;2023-03-24T13:15:29;94729.75;;;15.82;79.21
34185;BME280;20454;48.100;11.776;2023-03-24T13:18:05;94734.31;;;15.90;78.72
34185;BME280;20454;48.100;11.776;2023-03-24T13:26:56;94731.38;;;15.61;80.00
34185;BME280;20454;48.100;11.776;2023-03-24T13:32:05;94727.88;;;15.45;81.17
34185;BME280;20454;48.100;11.776;2023-03-24T13:34:39;94730.09;;;15.36;80.55
34185;BME280;20454;48.100;11.776;2023-03-24T13:37:13;94736.34;;;15.29;82.54
34185;BME280;20454;48.100;11.776;2023-03-24T13:39:41;94708.19;;;15.03;83.46
34185;BME280;20454;48.100;11.776;2023-03-24T13:42:36;94712.47;;;14.78;88.25
34185;BME280;20454;48.100;11.776;2023-03-24T13:45:20;94711.66;;;14.78;89.28
34185;BME280;20454;48.100;11.776;2023-03-24T13:48:16;94681.81;;;14.48;90.57
34185;BME280;20454;48.100;11.776;2023-03-24T13:51:02;94697.72;;;14.63;92.02
34185;BME280;20454;48.100;11.776;2023-03-24T17:02:39;94716.25;;;10.77;100.00
34185;BME280;20454;48.100;11.776;2023-03-24T17:05:23;94720.88;;;10.73;100.00
34185;BME280;20454;48.100;11.776;2023-03-24T17:07:52;94719.97;;;10.81;100.00
34185;BME280;20454;48.100;11.776;2023-03-24T17:10:18;94690.50;;;10.68;100.00
34185;BME280;20454;48.100;11.776;2023-03-24T17:12:47;94698.75;;;10.77;100.00
34185;BME280;20454;48.100;11.776;2023-03-24T17:15:25;94681.25;;;10.76;100.00
34185;BME280;20454;48.100;11.776;2023-03-24T17:17:51;94669.00;;;10.57;100.00
34185;BME280;20454;48.100;11.776;2023-03-24T17:20:18;94703.97;;;10.78;100.00
34185;BME280;20454;48.100;11.776;2023-03-24T17:22:45;94701.75;;;10.72;100.00
34185;BME280;20454;48.100;11.776;2023-03-24T17:25:14;94704.94;;;10.62;100.00
34185;BME280;20454;48.100;11.776;2023-03-24T17:27:40;94696.97;;;10.40;100.00
34185;BME280;20454;48.100;11.776;2023-03-24T17:30:06;94724.72;;;10.48;100.00
34185;BME280;20454;48.100;11.776;2023-03-24T17:32:33;94716.03;;;10.50;100.00
34185;BME280;20454;48.100;11.776;2023-03-24T17:34:59;94728.28;;;10.49;100.00
34185;BME280;20454;48.100;11.776;2023-03-24T17:37:29;94726.88;;;10.43;100.00
34185;BME280;20454;48.100;11.776;2023-03-24T17:39:55;94728.72;;;10.39;100.00
34185;BME280;20454;48.100;11.776;2023-03-24T17:42:22;94758.00;;;10.57;100.00
34185;BME280;20454;48.100;11.776;2023-03-24T17:44:49;94745.88;;;10.61;100.00
34185;BME280;20454;48.100;11.776;2023-03-24T17:47:15;94748.94;;;10.48;100.00
34185;BME280;20454;48.100;11.776;2023-03-24T17:49:40;94767.84;;;10.54;100.00
34185;BME280;20454;48.100;11.776;2023-03-24T17:52:07;94736.38;;;10.42;100.00
34185;BME280;20454;48.100;11.776;2023-03-24T17:54:32;94733.69;;;10.33;100.00
34185;BME280;20454;48.100;11.776;2023-03-24T17:56:58;94727.31;;;10.33;100.00
34185;BME280;20454;48.100;11.776;2023-03-24T17:59:24;94717.88;;;10.25;100.00
34185;BME280;20454;48.100;11.776;2023-03-24T18:01:50;94696.97;;;10.19;100.00
34185;BME280;20454;48.100;11.776;2023-03-24T18:04:16;94716.88;;;10.30;100.00
34185;BME280;20454;48.100;11.776;2023-03-24T18:06:42;94740.66;;;10.39;100.00
34185;BME280;20454;48.100;11.776;2023-03-24T18:09:08;94732.31;;;10.39;100.00
34185;BME280;20454;48.100;11.776;2023-03-24T18:11:34;94737.19;;;10.42;100.00
34185;BME280;20454;48.100;11.776;2023-03-24T18:14:00;94714.75;;;10.27;100.00
34185;BME280;20454;48.100;11.776;2023-03-24T18:16:27;94732.66;;;10.38;100.00
34185;BME280;20454;48.100;11.776;2023-03-24T18:18:55;94746.06;;;10.36;100.00
34185;BME280;20454;48.100;11.776;2023-03-24T18:21:22;94761.34;;;10.30;100.00
34185;BME280;20454;48.100;11.776;2023-03-24T18:23:48;94765.25;;;10.29;100.00
34185;BME280;20454;48.100;11.776;2023-03-24T18:26:15;94744.31;;;10.31;100.00
34185;BME280;20454;48.100;11.776;2023-03-24T18:28:41;94759.50;;;10.34;100.00
34185;BME280;20454;48.100;11.776;2023-03-24T18:31:13;94718.19;;;10.03;100.00
34185;BME280;20454;48.100;11.776;2023-03-24T18:33:40;94738.69;;;10.19;100.00
34185;BME280;20454;48.100;11.776;2023-03-24T18:36:11;94757.75;;;10.29;100.00
34185;BME280;20454;48.100;11.776;2023-03-24T18:38:38;94760.13;;;10.19;100.00
34185;BME280;20454;48.100;11.776;2023-03-24T18:41:05;94758.75;;;10.25;100.00
34185;BME280;20454;48.100;11.776;2023-03-24T19:58:41;94864.75;;;10.15;97.46
34185;BME280;20454;48.100;11.776;2023-03-24T20:01:06;94860.97;;;10.19;95.55
34185;BME280;20454;48.100;11.776;2023-03-24T20:03:32;94859.03;;;10.20;94.97
34185;BME280;20454;48.100;11.776;2023-03-24T20:06:06;94851.97;;;10.22;94.05
34185;BME280;20454;48.100;11.776;2023-03-24T20:08:35;94854.63;;;10.19;93.12
34185;BME280;20454;48.100;11.776;2023-03-24T20:11:04;94859.34;;;10.18;91.82
34185;BME280;20454;48.100;11.776;2023-03-24T20:13:30;94874.66;;;10.33;89.21
34185;BME280;20454;48.100;11.776;2023-03-24T20:15:56;94859.16;;;10.23;89.20
34185;BME280;20454;48.100;11.776;2023-03-24T20:18:21;94868.81;;;10.26;89.89
34185;BME280;20454;48.100;11.776;2023-03-24T20:20:47;94868.19;;;10.20;89.86
34185;BME280;20454;48.100;11.776;2023-03-24T20:23:13;94850.25;;;10.09;89.33
34185;BME280;20454;48.100;11.776;2023-03-24T20:25:42;94856.91;;;10.17;87.87
34185;BME280;20454;48.100;11.776;2023-03-24T20:28:07;94850.53;;;10.16;87.89
34185;BME280;20454;48.100;11.776;2023-03-24T20:30:33;94848.09;;;10.15;85.00
34185;BME280;20454;48.100;11.776;2023-03-24T20:32:59;94848.63;;;10.08;85.79
34185;BME280;20454;48.100;11.776;2023-03-24T20:35:25;94819.88;;;10.04;85.74
34185;BME280;20454;48.100;11.776;2023-03-24T20:37:52;94826.88;;;10.02;86.46
34185;BME280;20454;48.100;11.776;2023-03-24T20:40:18;94815.47;;;9.95;84.46
34185;BME280;20454;48.100;11.776;2023-03-24T20:42:45;94834.75;;;10.00;85.38
34185;BME280;20454;48.100;11.776;2023-03-24T20:45:10;94827.25;;;9.92;85.86
34185;BME280;20454;48.100;11.776;2023-03-24T20:47:36;94818.94;;;9.92;85.05
34185;BME280;20454;48.100;11.776;2023-03-24T20:50:02;94805.44;;;9.82;85.21
34185;BME280;20454;48.100;11.776;2023-03-24T20:52:28;94808.81;;;9.87;85.73
34185;BME280;20454;48.100;11.776;2023-03-24T20:54:56;94796.59;;;9.80;85.89
34185;BME280;20454;48.100;11.776;2023-03-24T20:57:25;94802.66;;;9.82;85.42
34185;BME280;20454;48.100;11.776;2023-03-24T20:59:51;94791.88;;;9.80;86.27
34185;BME280;20454;48.100;11.776;2023-03-24T21:02:16;94803.31;;;9.79;86.36
34185;BME280;20454;48.100;11.776;2023-03-24T21:04:43;94804.00;;;9.76;86.55
34185;BME280;20454;48.100;11.776;2023-03-24T21:07:09;94803.47;;;9.74;87.33
34185;BME280;20454;48.100;11.776;2023-03-24T21:09:35;94803.19;;;9.67;87.28
34185;BME280;20454;48.100;11.776;2023-03-24T21:12:01;94812.81;;;9.69;87.04
34185;BME280;20454;48.100;11.776;2023-03-24T21:14:27;94809.88;;;9.74;85.82
34185;BME280;20454;48.100;11.776;2023-03-24T21:16:54;94809.88;;;9.74;87.15
34185;BME280;20454;48.100;11.776;2023-03-24T21:19:20;94808.88;;;9.70;87.14
34185;BME280;20454;48.100;11.776;2023-03-24T21:21:47;94817.44;;;9.65;88.20
34185;BME280;20454;48.100;11.776;2023-03-24T21:24:15;94822.84;;;9.62;87.53
34185;BME280;20454;48.100;11.776;2023-03-24T21:26:41;94835.88;;;9.61;88.27
34185;BME280;20454;48.100;11.776;2023-03-24T21:29:07;94843.44;;;9.61;87.92
34185;BME280;20454;48.100;11.776;2023-03-24T21:31:32;94851.25;;;9.59;88.04
34185;BME280;20454;48.100;11.776;2023-03-24T21:33:58;94849.63;;;9.58;87.52
34185;BME280;20454;48.100;11.776;2023-03-24T21:36:24;94849.78;;;9.53;88.30
34185;BME280;20454;48.100;11.776;2023-03-24T21:38:55;94852.72;;;9.56;87.74
34185;BME280;20454;48.100;11.776;2023-03-24T21:41:21;94856.31;;;9.65;86.85
34185;BME280;20454;48.100;11.776;2023-03-24T21:43:47;94848.81;;;9.57;87.66
34185;BME280;20454;48.100;11.776;2023-03-24T21:46:19;94850.75;;;9.65;87.71
34185;BME280;20454;48.100;11.776;2023-03-24T21:48:49;94860.72;;;9.58;88.28
34185;BME280;20454;48.100;11.776;2023-03-24T21:51:20;94854.19;;;9.62;86.67
34185;BME280;20454;48.100;11.776;2023-03-24T21:53:49;94858.44;;;9.60;87.38
34185;BME280;20454;48.100;11.776;2023-03-24T21:56:15;94860.25;;;9.56;87.27
34185;BME280;20454;48.100;11.776;2023-03-24T21:58:40;94861.22;;;9.60;87.57
34185;BME280;20454;48.100;11.776;2023-03-24T22:01:06;94857.16;;;9.57;87.79
34185;BME280;20454;48.100;11.776;2023-03-24T22:03:33;94855.66;;;9.60;87.25
34185;BME280;20454;48.100;11.776;2023-03-24T22:06:02;94860.59;;;9.54;87.59